createdAt,value
2022-10-11T00:01:32.821Z,98403.16
2022-10-11T00:04:36.082Z,98401.56
2022-10-11T00:07:40.719Z,98403.50
2022-10-11T00:10:43.960Z,98422.34
2022-10-11T00:13:47.248Z,98423.88
2022-10-11T00:16:50.356Z,98406.50
2022-10-11T00:19:53.459Z,98423.44
2022-10-11T00:22:57.928Z,98428.22
2022-10-11T00:26:03.133Z,98426.63
2022-10-11T00:29:06.632Z,98434.84
2022-10-11T00:32:09.749Z,98431.16
2022-10-11T00:35:12.971Z,98429.16
2022-10-11T00:38:18.027Z,98436.66
2022-10-11T00:41:21.333Z,98433.91
2022-10-11T00:44:27.012Z,98440.25
2022-10-11T00:47:30.375Z,98437.75
2022-10-11T00:50:36.164Z,98438.25
2022-10-11T00:53:41.663Z,98433.00
2022-10-11T00:56:50.603Z,98439.91
2022-10-11T00:59:56.471Z,98421.28
2022-10-11T01:03:00.703Z,98446.03
2022-10-11T01:06:04.595Z,98425.34
2022-10-11T01:09:10.849Z,98441.91
2022-10-11T01:12:17.891Z,98418.63
2022-10-11T01:15:27.062Z,98437.69
2022-10-11T01:18:36.507Z,98431.84
2022-10-11T01:21:49.058Z,98430.94
2022-10-11T01:25:15.845Z,98428.53
2022-10-11T01:28:34.397Z,98428.28
2022-10-11T01:31:46.027Z,98447.53
2022-10-11T01:34:56.899Z,98446.72
2022-10-11T01:38:03.771Z,98445.41
2022-10-11T01:41:12.146Z,98438.28
2022-10-11T01:44:15.733Z,98434.34
2022-10-11T01:47:22.586Z,98447.81
2022-10-11T01:50:38.467Z,98381.97
2022-10-11T01:53:56.759Z,98449.38
2022-10-11T01:57:19.716Z,98448.38
2022-10-11T02:00:25.708Z,98457.75
2022-10-11T02:03:40.611Z,98469.97
2022-10-11T02:06:52.657Z,98460.25
2022-10-11T02:10:02.716Z,98459.16
2022-10-11T02:13:10.300Z,98468.16
2022-10-11T02:16:18.983Z,98463.50
2022-10-11T02:19:33.828Z,98461.63
2022-10-11T02:22:39.874Z,98459.81
2022-10-11T02:25:45.262Z,98465.44
2022-10-11T02:28:50.905Z,98476.84
2022-10-11T02:31:56.684Z,98468.09
2022-10-11T02:35:03.137Z,98474.16
2022-10-11T02:38:15.171Z,98477.56
2022-10-11T02:41:26.504Z,98467.34
2022-10-11T02:44:33.981Z,98466.25
2022-10-11T02:47:37.724Z,98464.84
2022-10-11T02:50:44.371Z,98440.72
2022-10-11T02:53:47.499Z,98467.28
2022-10-11T02:56:50.799Z,98475.97
2022-10-11T02:59:53.937Z,98471.56
2022-10-11T03:02:57.225Z,98488.19
2022-10-11T03:06:03.197Z,98484.53
2022-10-11T03:09:07.725Z,98453.72
2022-10-11T03:12:10.878Z,98481.06
2022-10-11T03:15:16.191Z,98483.88
2022-10-11T03:18:19.450Z,98491.03
2022-10-11T03:21:25.100Z,98492.47
2022-10-11T03:24:28.400Z,98499.19
2022-10-11T03:27:31.590Z,98503.31
2022-10-11T03:34:34.025Z,98494.50
2022-10-11T03:37:37.191Z,98466.63
2022-10-11T03:40:40.887Z,98495.91
2022-10-11T03:43:43.998Z,98507.97
2022-10-11T03:46:47.144Z,98503.59
2022-10-11T03:49:51.728Z,98502.00
2022-10-11T03:52:54.824Z,98505.88
2022-10-11T03:55:58.151Z,98456.41
2022-10-11T03:59:02.314Z,98520.06
2022-10-11T04:02:05.520Z,98521.19
2022-10-11T04:05:27.600Z,98506.56
2022-10-11T04:08:30.790Z,98516.56
2022-10-11T04:11:33.977Z,98518.97
2022-10-11T04:14:37.354Z,98519.28
2022-10-11T04:17:41.166Z,98509.44
2022-10-11T04:20:45.675Z,98516.69
2022-10-11T04:23:49.013Z,98525.16
2022-10-11T04:26:52.158Z,98524.41
2022-10-11T04:29:55.387Z,98530.19
2022-10-11T04:32:58.520Z,98522.63
2022-10-11T04:36:03.406Z,98524.72
2022-10-11T04:39:07.742Z,98524.72
2022-10-11T04:42:10.873Z,98525.94
2022-10-11T04:45:14.027Z,98518.75
2022-10-11T04:48:17.169Z,98530.13
2022-10-11T04:51:22.353Z,98537.06
2022-10-11T04:54:25.863Z,98543.94
2022-10-11T04:57:29.032Z,98543.25
2022-10-11T05:00:32.165Z,98533.78
2022-10-11T05:03:35.392Z,98532.16
2022-10-11T05:06:40.183Z,98538.81
2022-10-11T05:09:43.251Z,98535.38
2022-10-11T05:12:46.364Z,98542.25
2022-10-11T05:15:49.815Z,98547.38
2022-10-11T05:18:52.921Z,98549.13
2022-10-11T05:21:57.464Z,98552.66
2022-10-11T05:25:00.566Z,98535.53
2022-10-11T05:28:03.718Z,98560.09
2022-10-11T05:31:07.094Z,98565.47
2022-10-11T05:34:10.337Z,98555.16
2022-10-11T05:37:14.965Z,98563.53
2022-10-11T05:40:18.129Z,98570.78
2022-10-11T05:43:21.548Z,98583.78
2022-10-11T05:46:24.650Z,98581.44
2022-10-11T05:49:27.939Z,98586.91
2022-10-11T05:52:35.612Z,98595.09
2022-10-11T05:55:39.787Z,98591.91
2022-10-11T05:58:43.117Z,98599.63
2022-10-11T06:01:46.351Z,98608.06
2022-10-11T06:04:49.487Z,98613.00
2022-10-11T06:07:54.336Z,98605.09
2022-10-11T06:10:58.292Z,98617.03
2022-10-11T06:14:01.467Z,98620.53
2022-10-11T06:17:04.618Z,98619.84
2022-10-11T06:20:08.886Z,98633.81
2022-10-11T06:23:13.512Z,98607.53
2022-10-11T06:26:16.746Z,98631.59
2022-10-11T06:29:20.012Z,98638.06
2022-10-11T06:32:23.268Z,98650.31
2022-10-11T06:35:26.672Z,98645.78
2022-10-11T06:38:31.242Z,98647.88
2022-10-11T06:41:34.435Z,98653.38
2022-10-11T06:44:38.068Z,98634.50
2022-10-11T06:47:41.181Z,98660.13
2022-10-11T06:51:00.649Z,98665.44
2022-10-11T06:54:05.730Z,98669.16
2022-10-11T06:57:08.851Z,98675.31
2022-10-11T07:00:13.408Z,98672.78
2022-10-11T07:03:21.011Z,98685.44
2022-10-11T07:06:26.864Z,98657.41
2022-10-11T07:09:32.861Z,98688.63
2022-10-11T07:12:36.259Z,98684.41
2022-10-11T07:15:41.171Z,98615.72
2022-10-11T07:18:44.552Z,98702.19
2022-10-11T07:21:47.747Z,98707.38
2022-10-11T07:24:52.589Z,98698.69
2022-10-11T07:27:55.924Z,98709.81
2022-10-11T07:30:59.552Z,98714.47
2022-10-11T07:34:03.067Z,98700.44
2022-10-11T07:37:06.317Z,98713.88
2022-10-11T07:40:11.743Z,98710.13
2022-10-11T07:43:15.603Z,98699.88
2022-10-11T07:46:19.652Z,98711.19
2022-10-11T07:49:22.871Z,98711.41
2022-10-11T07:52:26.349Z,98716.75
2022-10-11T07:55:31.713Z,98712.94
2022-10-11T07:58:35.167Z,98720.31
2022-10-11T08:01:38.646Z,98712.13
2022-10-11T08:04:42.091Z,98708.69
2022-10-11T08:07:45.314Z,98716.97
2022-10-11T08:10:49.921Z,98716.56
2022-10-11T08:13:53.623Z,98714.34
2022-10-11T08:16:56.919Z,98716.00
2022-10-11T08:20:00.127Z,98713.63
2022-10-11T08:23:03.354Z,98712.50
2022-10-11T08:26:08.927Z,98696.28
2022-10-11T08:29:12.477Z,98705.78
2022-10-11T08:32:15.899Z,98732.13
2022-10-11T08:35:19.153Z,98716.03
2022-10-11T08:38:22.663Z,98710.25
2022-10-11T08:41:32.653Z,98723.06
2022-10-11T08:45:09.662Z,98726.84
2022-10-11T08:48:14.443Z,98730.59
2022-10-11T08:51:24.266Z,98739.50
2022-10-11T08:54:36.674Z,98729.38
2022-10-11T08:57:42.829Z,98736.16
2022-10-11T09:00:49.406Z,98729.78
2022-10-11T09:03:53.533Z,98728.97
2022-10-11T09:07:05.196Z,98725.78
2022-10-11T09:10:26.485Z,98724.28
2022-10-11T09:14:02.954Z,98721.75
2022-10-11T09:17:18.684Z,98719.84
2022-10-11T09:20:34.268Z,98708.69
2022-10-11T09:24:01.897Z,98706.00
2022-10-11T09:27:15.513Z,98679.91
2022-10-11T09:30:21.520Z,98718.66
2022-10-11T09:34:35.318Z,98720.59
2022-10-11T09:37:45.125Z,98723.63
2022-10-11T09:41:00.038Z,98734.78
2022-10-11T09:44:03.156Z,98726.00
2022-10-11T09:47:07.417Z,98737.09
2022-10-11T09:50:16.996Z,98739.69
2022-10-11T09:53:21.835Z,98738.66
2022-10-11T09:56:27.091Z,98744.91
2022-10-11T09:59:34.427Z,98741.84
2022-10-11T10:02:43.227Z,98748.63
2022-10-11T10:06:09.260Z,98755.97
2022-10-11T10:09:30.391Z,98759.91
2022-10-11T10:12:33.690Z,98765.50
2022-10-11T10:15:38.544Z,98764.09
2022-10-11T10:18:50.284Z,98762.63
2022-10-11T10:21:57.063Z,98758.63
2022-10-11T10:25:02.854Z,98742.28
2022-10-11T10:28:18.983Z,98774.63
2022-10-11T10:31:24.016Z,98778.59
2022-10-11T10:34:31.116Z,98748.75
2022-10-11T10:37:39.905Z,98781.09
2022-10-11T10:40:46.481Z,98773.88
2022-10-11T10:43:53.809Z,98780.13
2022-10-11T10:47:07.423Z,98769.31
2022-10-11T10:50:18.920Z,98773.03
2022-10-11T10:53:28.604Z,98771.34
2022-10-11T10:56:39.580Z,98773.22
2022-10-11T11:00:02.856Z,98774.22
2022-10-11T11:03:12.228Z,98764.19
2022-10-11T11:06:27.446Z,98774.31
2022-10-11T11:09:50.704Z,98723.81
2022-10-11T11:13:05.136Z,98775.59
2022-10-11T11:16:15.523Z,98772.44
2022-10-11T11:19:31.174Z,98775.81
2022-10-11T11:22:44.543Z,98771.28
2022-10-11T11:25:57.581Z,98760.66
2022-10-11T11:29:12.482Z,98737.22
2022-10-11T11:32:23.927Z,98755.63
2022-10-11T11:35:32.073Z,98760.69
2022-10-11T11:38:43.853Z,98755.09
2022-10-11T11:41:54.780Z,98762.16
2022-10-11T11:45:03.213Z,98752.56
2022-10-11T11:48:11.961Z,98755.25
2022-10-11T11:51:19.096Z,98743.41
2022-10-11T11:54:31.416Z,98749.78
2022-10-11T11:57:50.079Z,98734.53
2022-10-11T12:01:02.926Z,98754.28
2022-10-11T12:04:13.605Z,98756.28
2022-10-11T12:07:19.261Z,98732.88
2022-10-11T12:10:33.145Z,98749.69
2022-10-11T12:13:39.183Z,98758.47
2022-10-11T12:17:17.641Z,98754.75
2022-10-11T12:20:25.329Z,98752.66
2022-10-11T12:23:49.318Z,98749.69
2022-10-11T12:26:56.489Z,98735.97
2022-10-11T12:30:01.121Z,98734.69
2022-10-11T12:33:07.881Z,98736.38
2022-10-11T12:36:33.077Z,98740.63
2022-10-11T12:39:51.308Z,98738.06
2022-10-11T12:43:10.958Z,98742.19
2022-10-11T12:47:00.245Z,98646.53
2022-10-11T12:50:19.762Z,98737.53
2022-10-11T12:53:39.373Z,98735.75
2022-10-11T12:56:49.519Z,98738.34
2022-10-11T12:59:52.840Z,98742.56
2022-10-11T13:02:58.675Z,98719.47
2022-10-11T13:06:12.390Z,98729.88
2022-10-11T13:09:24.076Z,98722.69
2022-10-11T13:12:29.996Z,98746.72
2022-10-11T13:15:33.982Z,98745.03
2022-10-11T13:18:43.416Z,98744.31
2022-10-11T13:21:51.923Z,98743.19
2022-10-11T13:24:57.616Z,98733.16
2022-10-11T13:28:00.833Z,98720.78
2022-10-11T13:31:05.704Z,98737.53
2022-10-11T13:34:13.639Z,98718.38
2022-10-11T13:37:18.995Z,98735.34
2022-10-11T13:40:23.154Z,98734.03
2022-10-11T13:43:29.088Z,98731.53
2022-10-11T13:46:34.322Z,98729.38
2022-10-11T13:49:40.128Z,98728.63
2022-10-11T13:52:56.503Z,98709.09
2022-10-11T13:56:01.819Z,98735.03
2022-10-11T13:59:05.643Z,98723.56
2022-10-11T14:02:19.441Z,98731.47
2022-10-11T14:05:31.384Z,98726.63
2022-10-11T14:08:39.048Z,98717.88
2022-10-11T14:11:42.209Z,98729.59
2022-10-11T14:14:48.650Z,98714.25
2022-10-11T14:17:52.248Z,98719.78
2022-10-11T14:20:57.011Z,98685.88
2022-10-11T14:24:02.523Z,98708.75
2022-10-11T14:27:07.273Z,98716.50
2022-10-11T14:30:31.991Z,98719.31
2022-10-11T14:33:35.918Z,98725.09
2022-10-11T14:36:40.426Z,98723.59
2022-10-11T14:39:44.250Z,98728.66
2022-10-11T14:42:47.422Z,98728.16
2022-10-11T14:45:50.645Z,98709.53
2022-10-11T14:48:56.355Z,98718.34
2022-10-11T14:52:01.520Z,98725.09
2022-10-11T14:55:05.286Z,98725.94
2022-10-11T14:58:10.388Z,98734.22
2022-10-11T15:01:15.610Z,98727.22
2022-10-11T15:04:18.933Z,98724.63
2022-10-11T15:07:23.423Z,98729.31
2022-10-11T15:10:28.847Z,98735.53
2022-10-11T15:13:31.942Z,98737.44
2022-10-11T15:16:35.992Z,98736.59
2022-10-11T15:19:39.197Z,98727.25
2022-10-11T15:22:43.809Z,98736.03
2022-10-11T15:25:46.938Z,98737.34
2022-10-11T15:28:50.903Z,98733.50
2022-10-11T15:34:33.715Z,98732.31
2022-10-11T15:37:37.556Z,98727.38
2022-10-11T15:40:41.684Z,98723.28
2022-10-11T15:43:46.005Z,98726.84
2022-10-11T15:46:49.193Z,98720.53
2022-10-11T15:49:53.692Z,98709.72
2022-10-11T15:53:00.829Z,98711.56
2022-10-11T15:56:08.368Z,98722.50
2022-10-11T15:59:12.784Z,98673.50
2022-10-11T16:02:16.311Z,98730.41
2022-10-11T16:05:21.730Z,98723.50
2022-10-11T16:08:25.111Z,98730.47
2022-10-11T16:11:28.609Z,98731.50
2022-10-11T16:14:31.725Z,98707.91
2022-10-11T16:17:35.176Z,98737.63
2022-10-11T16:20:40.263Z,98734.94
2022-10-11T16:23:44.034Z,98732.84
2022-10-11T16:26:47.132Z,98688.00
2022-10-11T16:29:50.359Z,98746.44
2022-10-11T16:32:53.748Z,98744.09
2022-10-11T16:36:18.299Z,98745.38
2022-10-11T16:39:42.901Z,98733.78
2022-10-11T16:42:46.990Z,98745.66
2022-10-11T16:45:57.516Z,98744.72
2022-10-11T16:49:00.935Z,98735.63
2022-10-11T16:52:05.634Z,98737.75
2022-10-11T16:55:09.594Z,98730.88
2022-10-11T16:58:12.684Z,98747.75
2022-10-11T17:01:15.822Z,98736.03
2022-10-11T17:04:19.150Z,98746.72
2022-10-11T17:07:24.147Z,98742.72
2022-10-11T17:10:39.268Z,98747.75
2022-10-11T17:13:43.237Z,98740.78
2022-10-11T17:16:46.714Z,98746.56
2022-10-11T17:19:50.105Z,98758.50
2022-10-11T17:22:55.151Z,98759.13
2022-10-11T17:25:58.688Z,98758.75
2022-10-11T17:29:02.248Z,98751.75
2022-10-11T17:32:05.821Z,98739.59
2022-10-11T17:35:09.338Z,98750.50
2022-10-11T17:38:13.824Z,98741.75
2022-10-11T17:41:17.156Z,98751.38
2022-10-11T17:44:21.667Z,98759.88
2022-10-11T17:47:24.886Z,98750.03
2022-10-11T17:50:28.036Z,98761.19
2022-10-11T17:53:32.581Z,98763.59
2022-10-11T17:56:38.216Z,98758.56
2022-10-11T17:59:41.792Z,98762.00
2022-10-11T18:02:44.922Z,98762.28
2022-10-11T18:05:48.625Z,98752.34
2022-10-11T18:08:53.194Z,98723.25
2022-10-11T18:11:56.272Z,98755.81
2022-10-11T18:14:59.414Z,98754.34
2022-10-11T18:18:04.822Z,98760.16
2022-10-11T18:21:08.152Z,98755.84
2022-10-11T18:24:15.966Z,98757.97
2022-10-11T18:27:19.164Z,98758.59
2022-10-11T18:30:22.295Z,98750.66
2022-10-11T18:33:25.575Z,98756.50
2022-10-11T18:36:31.550Z,98758.06
2022-10-11T18:39:36.273Z,98741.97
2022-10-11T18:42:39.612Z,98753.78
2022-10-11T18:45:42.736Z,98744.13
2022-10-11T18:48:47.576Z,98752.97
2022-10-11T18:51:50.747Z,98751.63
2022-10-11T18:54:55.482Z,98750.25
2022-10-11T18:57:59.007Z,98747.06
2022-10-11T19:01:05.639Z,98750.44
2022-10-11T19:04:10.164Z,98756.88
2022-10-11T19:07:13.417Z,98752.00
2022-10-11T19:10:17.967Z,98761.47
2022-10-11T19:13:21.077Z,98759.19
2022-10-11T19:16:24.603Z,98722.97
2022-10-11T19:19:29.378Z,98739.56
2022-10-11T19:22:32.720Z,98742.69
2022-10-11T19:25:37.721Z,98749.88
2022-10-11T19:28:41.147Z,98727.00
2022-10-11T19:31:46.067Z,98753.56
2022-10-11T19:34:49.447Z,98749.34
2022-10-11T19:37:54.897Z,98755.34
2022-10-11T19:41:01.039Z,98736.34
2022-10-11T19:44:04.651Z,98758.84
2022-10-11T19:47:07.919Z,98759.09
2022-10-11T19:50:11.232Z,98768.97
2022-10-11T19:53:14.531Z,98769.25
2022-10-11T19:56:20.132Z,98767.19
2022-10-11T19:59:23.334Z,98767.50
2022-10-11T20:02:26.518Z,98743.75
2022-10-11T20:05:29.640Z,98768.44
2022-10-11T20:08:33.714Z,98770.00
2022-10-11T20:11:38.751Z,98769.63
2022-10-11T20:14:41.812Z,98772.59
2022-10-11T20:17:51.635Z,98759.16
2022-10-11T20:20:56.325Z,98706.97
2022-10-11T20:24:00.995Z,98762.19
2022-10-11T20:27:07.787Z,98773.97
2022-10-11T20:30:13.927Z,98776.59
2022-10-11T20:33:17.261Z,98779.16
2022-10-11T20:36:22.229Z,98782.31
2022-10-11T20:39:25.569Z,98786.09
2022-10-11T20:42:30.290Z,98780.03
2022-10-11T20:45:33.520Z,98775.63
2022-10-11T20:48:38.296Z,98776.75
2022-10-11T20:51:42.819Z,98779.41
2022-10-11T20:54:45.950Z,98780.16
2022-10-11T20:57:50.602Z,98783.44
2022-10-11T21:00:53.804Z,98792.16
2022-10-11T21:03:58.752Z,98786.88
2022-10-11T21:07:02.004Z,98786.66
2022-10-11T21:10:05.694Z,98753.78
2022-10-11T21:13:10.350Z,98795.00
2022-10-11T21:16:15.774Z,98784.00
2022-10-11T21:19:19.049Z,98752.66
2022-10-11T21:22:22.420Z,98775.78
2022-10-11T21:25:25.970Z,98773.34
2022-10-11T21:28:30.533Z,98754.59
2022-10-11T21:34:33.446Z,98764.09
2022-10-11T21:37:36.992Z,98777.88
2022-10-11T21:40:40.723Z,98774.56
2022-10-11T21:43:43.970Z,98767.94
2022-10-11T21:47:06.076Z,98774.13
2022-10-11T21:50:11.784Z,98759.81
2022-10-11T21:53:14.998Z,98766.25
2022-10-11T21:56:18.390Z,98767.09
2022-10-11T21:59:21.569Z,98784.00
2022-10-11T22:02:24.647Z,98775.66
2022-10-11T22:05:29.151Z,98780.84
2022-10-11T22:08:32.681Z,98783.50
2022-10-11T22:11:35.827Z,98784.56
2022-10-11T22:14:39.084Z,98785.41
2022-10-11T22:17:42.217Z,98777.63
2022-10-11T22:20:47.024Z,98780.34
2022-10-11T22:23:51.772Z,98773.56
2022-10-11T22:26:54.855Z,98768.66
2022-10-11T22:29:57.994Z,98775.16
2022-10-11T22:33:01.334Z,98764.66
2022-10-11T22:36:08.857Z,98760.44
2022-10-11T22:39:12.127Z,98758.47
2022-10-11T22:42:15.329Z,98768.09
2022-10-11T22:45:18.471Z,98769.78
2022-10-11T22:48:21.596Z,98765.88
2022-10-11T22:51:26.182Z,98765.41
2022-10-11T22:54:29.341Z,98745.22
2022-10-11T22:57:32.499Z,98745.00
2022-10-11T23:00:35.707Z,98745.53
2022-10-11T23:03:39.083Z,98746.75
2022-10-11T23:06:43.712Z,98756.28
2022-10-11T23:09:46.807Z,98755.31
2022-10-11T23:12:49.937Z,98745.38
2022-10-11T23:15:53.208Z,98748.00
2022-10-11T23:18:56.721Z,98746.03
2022-10-11T23:22:01.239Z,98751.09
2022-10-11T23:25:04.622Z,98753.88
2022-10-11T23:28:07.988Z,98755.81
2022-10-11T23:31:13.212Z,98734.81
2022-10-11T23:34:16.499Z,98752.50
2022-10-11T23:37:20.999Z,98758.34
2022-10-11T23:40:24.464Z,98757.50
2022-10-11T23:43:27.753Z,98766.13
2022-10-11T23:46:30.892Z,98746.16
2022-10-11T23:49:33.961Z,98753.81
2022-10-11T23:52:38.722Z,98760.81
2022-10-11T23:55:43.296Z,98759.03
2022-10-11T23:58:46.683Z,98760.09
